createdAt,value
2017-08-30T00:00:18.482Z,15.86
2017-08-30T00:01:18.535Z,15.88
2017-08-30T00:02:18.499Z,15.86
2017-08-30T00:03:19.379Z,15.85
2017-08-30T00:04:18.455Z,15.84
2017-08-30T00:05:18.573Z,15.79
2017-08-30T00:06:18.501Z,15.71
2017-08-30T00:07:18.473Z,15.68
2017-08-30T00:08:18.555Z,15.64
2017-08-30T00:09:18.526Z,15.63
2017-08-30T00:10:18.470Z,15.60
2017-08-30T00:11:18.519Z,15.65
2017-08-30T00:12:18.502Z,15.72
2017-08-30T00:13:18.562Z,15.76
2017-08-30T00:14:18.480Z,15.80
2017-08-30T00:15:18.479Z,15.81
2017-08-30T00:16:18.549Z,15.75
2017-08-30T00:17:18.502Z,15.67
2017-08-30T00:18:18.520Z,15.60
2017-08-30T00:19:18.501Z,15.56
2017-08-30T00:20:19.027Z,15.51
2017-08-30T00:21:18.584Z,15.52
2017-08-30T00:22:18.522Z,15.51
2017-08-30T00:23:18.642Z,15.50
2017-08-30T00:24:18.591Z,15.47
2017-08-30T00:25:18.505Z,15.47
2017-08-30T00:26:18.765Z,15.42
2017-08-30T00:27:18.474Z,15.43
2017-08-30T00:28:20.916Z,15.44
2017-08-30T00:29:18.533Z,15.47
2017-08-30T00:30:19.118Z,15.48
2017-08-30T00:31:18.537Z,15.47
2017-08-30T00:32:18.991Z,15.47
2017-08-30T00:33:18.561Z,15.47
2017-08-30T00:34:18.486Z,15.43
2017-08-30T00:35:19.115Z,15.43
2017-08-30T00:36:18.472Z,15.43
2017-08-30T00:37:18.544Z,15.47
2017-08-30T00:38:18.443Z,15.48
2017-08-30T00:39:18.656Z,15.50
2017-08-30T00:40:18.507Z,15.52
2017-08-30T00:41:18.502Z,15.48
2017-08-30T00:42:18.453Z,15.44
2017-08-30T00:43:18.493Z,15.43
2017-08-30T00:44:19.537Z,15.46
2017-08-30T00:45:18.446Z,15.44
2017-08-30T00:46:18.606Z,15.35
2017-08-30T00:47:18.519Z,15.38
2017-08-30T00:48:18.493Z,15.43
2017-08-30T00:49:18.525Z,15.44
2017-08-30T00:50:19.212Z,15.43
2017-08-30T00:51:18.491Z,15.39
2017-08-30T00:52:18.479Z,15.42
2017-08-30T00:53:19.176Z,15.43
2017-08-30T00:54:18.501Z,15.48
2017-08-30T00:55:18.509Z,15.48
2017-08-30T00:56:18.488Z,15.61
2017-08-30T00:57:19.071Z,15.57
2017-08-30T00:58:18.967Z,15.55
2017-08-30T00:59:18.481Z,15.56
2017-08-30T01:00:18.430Z,15.63
2017-08-30T01:01:18.419Z,15.56
2017-08-30T01:02:18.485Z,15.48
2017-08-30T01:03:18.526Z,15.52
2017-08-30T01:04:18.523Z,15.51
2017-08-30T01:05:19.472Z,15.47
2017-08-30T01:06:18.468Z,15.39
2017-08-30T01:07:18.486Z,15.47
2017-08-30T01:08:18.508Z,15.53
2017-08-30T01:09:18.414Z,15.52
2017-08-30T01:10:18.499Z,15.50
2017-08-30T01:11:19.140Z,15.42
2017-08-30T01:12:18.439Z,15.35
2017-08-30T01:13:18.460Z,15.26
2017-08-30T01:14:18.460Z,15.22
2017-08-30T01:15:19.186Z,15.27
2017-08-30T01:16:18.439Z,15.34
2017-08-30T01:17:18.466Z,15.42
2017-08-30T01:18:19.003Z,15.43
2017-08-30T01:19:18.464Z,15.35
2017-08-30T01:20:18.497Z,15.35
2017-08-30T01:21:18.445Z,15.42
2017-08-30T01:22:18.488Z,15.43
2017-08-30T01:23:19.111Z,15.43
2017-08-30T01:24:18.464Z,15.46
2017-08-30T01:25:18.507Z,15.48
2017-08-30T01:26:19.011Z,15.39
2017-08-30T01:27:19.009Z,15.27
2017-08-30T01:28:18.460Z,15.27
2017-08-30T01:29:19.013Z,16.63
2017-08-30T01:30:18.525Z,15.42
2017-08-30T01:31:19.123Z,15.40
2017-08-30T01:32:18.526Z,15.34
2017-08-30T01:33:18.569Z,15.31
2017-08-30T01:34:18.395Z,15.35
2017-08-30T01:35:18.427Z,15.36
2017-08-30T01:36:18.467Z,15.36
2017-08-30T01:37:19.023Z,15.31
2017-08-30T01:38:19.091Z,15.36
2017-08-30T01:39:18.453Z,15.39
2017-08-30T01:40:18.449Z,15.31
2017-08-30T01:41:18.474Z,15.32
2017-08-30T01:42:18.418Z,15.27
2017-08-30T01:43:19.032Z,15.32
2017-08-30T01:44:19.040Z,15.31
2017-08-30T01:45:18.502Z,15.22
2017-08-30T01:46:19.044Z,15.18
2017-08-30T01:47:19.037Z,15.21
2017-08-30T01:48:18.576Z,15.18
2017-08-30T01:49:18.435Z,15.13
2017-08-30T01:50:19.117Z,15.18
2017-08-30T01:51:19.054Z,15.31
2017-08-30T01:52:18.452Z,15.30
2017-08-30T01:53:19.160Z,15.26
2017-08-30T01:54:18.490Z,15.22
2017-08-30T01:55:18.426Z,15.28
2017-08-30T01:56:18.519Z,15.27
2017-08-30T01:57:18.399Z,15.22
2017-08-30T01:58:18.453Z,15.17
2017-08-30T01:59:18.464Z,15.26
2017-08-30T02:00:19.207Z,15.22
2017-08-30T02:01:19.170Z,15.18
2017-08-30T02:02:18.457Z,15.22
2017-08-30T02:03:19.066Z,15.25
2017-08-30T02:04:18.472Z,15.21
2017-08-30T02:05:19.066Z,15.06
2017-08-30T02:06:18.491Z,15.05
2017-08-30T02:07:18.392Z,15.21
2017-08-30T02:08:18.463Z,15.31
2017-08-30T02:09:18.401Z,15.27
2017-08-30T02:10:19.076Z,15.25
2017-08-30T02:11:19.083Z,15.30
2017-08-30T02:12:18.487Z,15.32
2017-08-30T02:13:18.473Z,15.31
2017-08-30T02:14:18.443Z,15.30
2017-08-30T02:15:18.425Z,15.34
2017-08-30T02:16:18.455Z,15.35
2017-08-30T02:17:18.425Z,15.30
2017-08-30T02:18:18.498Z,15.21
2017-08-30T02:19:18.468Z,15.14
2017-08-30T02:20:20.088Z,15.07
2017-08-30T02:21:18.518Z,15.06
2017-08-30T02:22:19.205Z,15.03
2017-08-30T02:23:18.374Z,15.05
2017-08-30T02:24:18.408Z,15.02
2017-08-30T02:25:18.465Z,15.02
2017-08-30T02:26:18.425Z,15.09
2017-08-30T02:27:18.394Z,15.10
2017-08-30T02:28:19.102Z,15.13
2017-08-30T02:29:18.481Z,15.11
2017-08-30T02:30:19.256Z,14.97
2017-08-30T02:31:19.238Z,14.97
2017-08-30T02:32:18.501Z,15.02
2017-08-30T02:33:19.110Z,15.09
2017-08-30T02:34:18.467Z,15.09
2017-08-30T02:35:19.391Z,15.13
2017-08-30T02:36:20.129Z,15.01
2017-08-30T02:37:18.425Z,14.90
2017-08-30T02:38:18.404Z,14.89
2017-08-30T02:39:18.426Z,14.89
2017-08-30T02:40:19.285Z,14.85
2017-08-30T02:41:18.419Z,14.85
2017-08-30T02:42:19.127Z,14.85
2017-08-30T02:43:18.385Z,14.81
2017-08-30T02:44:18.446Z,14.86
2017-08-30T02:45:18.426Z,14.93
2017-08-30T02:46:18.396Z,14.96
2017-08-30T02:47:18.424Z,14.89
2017-08-30T02:48:18.463Z,14.77
2017-08-30T02:49:20.133Z,14.75
2017-08-30T02:50:18.464Z,14.81
2017-08-30T02:51:18.451Z,14.79
2017-08-30T02:52:18.483Z,14.72
2017-08-30T02:53:18.490Z,14.68
2017-08-30T02:54:19.170Z,14.60
2017-08-30T02:55:18.443Z,14.60
2017-08-30T02:56:19.411Z,14.60
2017-08-30T02:57:18.409Z,14.68
2017-08-30T02:58:18.373Z,14.76
2017-08-30T02:59:18.370Z,14.77
2017-08-30T03:00:18.519Z,14.75
2017-08-30T03:01:18.460Z,14.72
2017-08-30T03:02:19.666Z,14.64
2017-08-30T03:03:18.357Z,14.59
2017-08-30T03:04:19.163Z,14.72
2017-08-30T03:05:18.529Z,14.79
2017-08-30T03:06:18.465Z,14.79
2017-08-30T03:07:18.463Z,14.71
2017-08-30T03:08:18.369Z,14.60
2017-08-30T03:09:18.378Z,14.59
2017-08-30T03:10:19.169Z,14.55
2017-08-30T03:11:18.444Z,14.52
2017-08-30T03:12:18.453Z,14.60
2017-08-30T03:13:19.434Z,14.72
2017-08-30T03:14:18.439Z,14.79
2017-08-30T03:15:19.173Z,14.86
2017-08-30T03:16:18.426Z,14.89
2017-08-30T03:17:18.527Z,14.82
2017-08-30T03:18:18.433Z,14.72
2017-08-30T03:19:18.432Z,14.64
2017-08-30T03:20:18.423Z,14.60
2017-08-30T03:21:18.458Z,14.61
2017-08-30T03:22:18.504Z,14.68
2017-08-30T03:23:18.464Z,14.65
2017-08-30T03:24:19.198Z,14.56
2017-08-30T03:25:18.318Z,14.56
2017-08-30T03:26:18.433Z,14.53
2017-08-30T03:27:19.246Z,14.56
2017-08-30T03:28:18.422Z,14.56
2017-08-30T03:29:19.345Z,14.47
2017-08-30T03:30:18.387Z,14.38
2017-08-30T03:31:18.428Z,14.47
2017-08-30T03:32:18.384Z,14.56
2017-08-30T03:33:19.399Z,14.64
2017-08-30T03:34:18.384Z,14.57
2017-08-30T03:35:18.473Z,14.51
2017-08-30T03:36:19.205Z,14.50
2017-08-30T03:37:18.364Z,14.47
2017-08-30T03:38:19.384Z,14.47
2017-08-30T03:39:19.211Z,14.47
2017-08-30T03:40:18.415Z,14.39
2017-08-30T03:41:18.431Z,14.31
2017-08-30T03:42:18.380Z,14.31
2017-08-30T03:43:18.408Z,14.27
2017-08-30T03:44:18.458Z,14.35
2017-08-30T03:45:18.372Z,14.31
2017-08-30T03:46:18.436Z,14.31
2017-08-30T03:47:18.410Z,14.28
2017-08-30T03:48:18.442Z,14.25
2017-08-30T03:49:18.432Z,14.35
2017-08-30T03:50:19.265Z,14.36
2017-08-30T03:51:18.472Z,14.40
2017-08-30T03:52:19.240Z,14.38
2017-08-30T03:53:18.498Z,14.28
2017-08-30T03:54:18.328Z,14.34
2017-08-30T03:55:18.433Z,14.47
2017-08-30T03:56:18.351Z,14.39
2017-08-30T03:57:18.359Z,14.31
2017-08-30T03:58:18.417Z,14.26
2017-08-30T03:59:19.241Z,14.21
2017-08-30T04:00:18.372Z,14.26
2017-08-30T04:01:18.355Z,14.19
2017-08-30T04:02:19.404Z,14.18
2017-08-30T04:03:19.253Z,14.26
2017-08-30T04:04:18.427Z,14.31
2017-08-30T04:05:19.252Z,14.31
2017-08-30T04:06:18.371Z,14.27
2017-08-30T04:07:18.381Z,14.22
2017-08-30T04:08:18.472Z,14.22
2017-08-30T04:09:18.386Z,14.18
2017-08-30T04:10:18.346Z,14.19
2017-08-30T04:11:18.374Z,14.25
2017-08-30T04:12:18.350Z,14.28
2017-08-30T04:13:18.352Z,14.23
2017-08-30T04:14:18.428Z,14.14
2017-08-30T04:15:18.420Z,14.14
2017-08-30T04:16:18.898Z,14.14
2017-08-30T04:17:18.771Z,14.22
2017-08-30T04:18:18.780Z,14.27
2017-08-30T04:19:19.271Z,14.26
2017-08-30T04:20:18.342Z,14.18
2017-08-30T04:21:18.808Z,14.28
2017-08-30T04:22:18.777Z,14.28
2017-08-30T04:23:18.368Z,14.31
2017-08-30T04:24:18.408Z,14.34
2017-08-30T04:25:18.437Z,14.27
2017-08-30T04:26:18.413Z,14.22
2017-08-30T04:27:18.368Z,14.27
2017-08-30T04:28:18.408Z,14.27
2017-08-30T04:29:18.372Z,14.25
2017-08-30T04:30:18.334Z,14.21
2017-08-30T04:31:18.409Z,14.26
2017-08-30T04:32:18.376Z,14.31
2017-08-30T04:33:18.361Z,14.35
2017-08-30T04:34:18.890Z,14.32
2017-08-30T04:35:18.513Z,14.27
2017-08-30T04:36:18.798Z,14.19
2017-08-30T04:37:18.337Z,14.19
2017-08-30T04:38:18.860Z,14.21
2017-08-30T04:39:18.378Z,14.22
2017-08-30T04:40:18.441Z,14.26
2017-08-30T04:41:18.358Z,14.25
2017-08-30T04:42:18.807Z,14.19
2017-08-30T04:43:18.370Z,14.18
2017-08-30T04:44:18.810Z,14.15
2017-08-30T04:45:18.811Z,14.22
2017-08-30T04:46:18.380Z,14.30
2017-08-30T04:47:19.315Z,14.35
2017-08-30T04:48:18.371Z,14.43
2017-08-30T04:49:18.386Z,14.46
2017-08-30T04:50:19.328Z,14.43
2017-08-30T04:51:18.823Z,14.36
2017-08-30T04:52:18.349Z,14.32
2017-08-30T04:53:18.824Z,14.32
2017-08-30T04:54:19.335Z,14.35
2017-08-30T04:55:18.402Z,14.38
2017-08-30T04:56:18.358Z,14.47
2017-08-30T04:57:18.357Z,14.50
2017-08-30T04:58:18.389Z,14.53
2017-08-30T04:59:18.340Z,14.56
2017-08-30T05:00:18.393Z,14.63
2017-08-30T05:01:18.343Z,14.65
2017-08-30T05:02:18.372Z,14.67
2017-08-30T05:03:18.371Z,14.72
2017-08-30T05:04:18.318Z,14.76
2017-08-30T05:05:18.492Z,14.77
2017-08-30T05:06:18.373Z,14.80
2017-08-30T05:07:18.420Z,14.79
2017-08-30T05:08:18.335Z,14.80
2017-08-30T05:09:18.408Z,14.80
2017-08-30T05:10:19.360Z,14.81
2017-08-30T05:11:18.335Z,14.89
2017-08-30T05:12:18.860Z,14.93
2017-08-30T05:13:18.355Z,14.97
2017-08-30T05:14:18.966Z,15.03
2017-08-30T05:15:19.359Z,15.06
2017-08-30T05:16:18.375Z,15.10
2017-08-30T05:17:18.377Z,15.21
2017-08-30T05:18:18.353Z,15.25
2017-08-30T05:19:18.423Z,15.38
2017-08-30T05:20:18.316Z,15.46
2017-08-30T05:21:18.448Z,15.47
2017-08-30T05:22:18.324Z,15.43
2017-08-30T05:23:18.872Z,15.43
2017-08-30T05:24:18.370Z,15.52
2017-08-30T05:25:18.385Z,15.61
2017-08-30T05:26:19.020Z,15.73
2017-08-30T05:27:18.346Z,15.76
2017-08-30T05:28:18.322Z,15.80
2017-08-30T05:29:18.442Z,15.77
2017-08-30T05:30:18.416Z,15.80
2017-08-30T05:31:18.883Z,15.84
2017-08-30T05:32:18.357Z,15.79
2017-08-30T05:33:18.314Z,15.79
2017-08-30T05:34:18.387Z,15.77
2017-08-30T05:35:18.901Z,15.73
2017-08-30T05:36:18.707Z,15.77
2017-08-30T05:37:18.920Z,15.81
2017-08-30T05:38:18.440Z,15.82
2017-08-30T05:39:18.339Z,15.86
2017-08-30T05:40:18.402Z,15.90
2017-08-30T05:41:18.384Z,16.04
2017-08-30T05:42:19.084Z,16.11
2017-08-30T05:43:18.903Z,16.18
2017-08-30T05:44:18.298Z,16.20
2017-08-30T05:45:18.373Z,16.29
2017-08-30T05:46:18.359Z,16.34
2017-08-30T05:47:18.911Z,16.39
2017-08-30T05:48:18.318Z,16.46
2017-08-30T05:49:18.384Z,16.48
2017-08-30T05:50:18.330Z,16.48
2017-08-30T05:51:19.130Z,16.45
2017-08-30T05:52:19.042Z,16.44
2017-08-30T05:53:18.331Z,16.44
2017-08-30T05:54:18.289Z,16.42
2017-08-30T05:55:19.063Z,16.38
2017-08-30T05:56:18.324Z,16.42
2017-08-30T05:57:18.393Z,16.45
2017-08-30T05:58:18.352Z,16.47
2017-08-30T05:59:18.928Z,16.52
2017-08-30T06:00:18.383Z,16.60
2017-08-30T06:01:19.040Z,16.62
2017-08-30T06:02:19.650Z,16.64
2017-08-30T06:03:18.325Z,16.62
2017-08-30T06:04:18.313Z,16.68
2017-08-30T06:05:18.323Z,16.75
2017-08-30T06:06:18.323Z,16.81
2017-08-30T06:07:18.356Z,16.88
2017-08-30T06:08:18.322Z,17.01
2017-08-30T06:09:19.138Z,17.10
2017-08-30T06:10:18.303Z,17.13
2017-08-30T06:11:18.949Z,17.17
2017-08-30T06:12:18.680Z,17.17
2017-08-30T06:13:18.325Z,17.21
2017-08-30T06:14:18.954Z,17.26
2017-08-30T06:15:18.433Z,17.29
2017-08-30T06:16:18.327Z,17.34
2017-08-30T06:17:18.383Z,17.37
2017-08-30T06:18:18.363Z,17.38
2017-08-30T06:19:18.290Z,17.42
2017-08-30T06:20:18.357Z,17.46
2017-08-30T06:21:19.132Z,17.57
2017-08-30T06:22:18.413Z,17.62
2017-08-30T06:23:18.310Z,17.68
2017-08-30T06:24:18.412Z,17.71
2017-08-30T06:25:19.145Z,17.77
2017-08-30T06:26:18.321Z,17.82
2017-08-30T06:27:19.177Z,17.92
2017-08-30T06:28:18.333Z,17.98
2017-08-30T06:29:19.043Z,18.02
2017-08-30T06:30:18.976Z,18.11
2017-08-30T06:31:18.282Z,18.18
2017-08-30T06:32:18.979Z,18.25
2017-08-30T06:33:19.115Z,18.30
2017-08-30T06:34:18.984Z,18.32
2017-08-30T06:35:18.319Z,18.42
2017-08-30T06:36:18.362Z,18.45
2017-08-30T06:37:18.274Z,18.54
2017-08-30T06:38:18.265Z,18.60
2017-08-30T06:39:18.997Z,18.63
2017-08-30T06:40:18.324Z,18.68
2017-08-30T06:41:18.363Z,18.70
2017-08-30T06:42:18.367Z,18.72
2017-08-30T06:43:18.327Z,18.73
2017-08-30T06:44:18.330Z,18.79
2017-08-30T06:45:18.324Z,18.87
2017-08-30T06:46:19.012Z,18.96
2017-08-30T06:47:19.188Z,19.04
2017-08-30T06:48:18.387Z,19.12
2017-08-30T06:49:18.319Z,19.20
2017-08-30T06:50:18.307Z,20.57
2017-08-30T06:51:18.250Z,19.36
2017-08-30T06:52:18.274Z,19.43
2017-08-30T06:53:18.278Z,19.47
2017-08-30T06:54:18.432Z,19.50
2017-08-30T06:55:18.262Z,19.51
2017-08-30T06:56:18.280Z,19.55
2017-08-30T06:57:19.026Z,19.55
2017-08-30T06:58:18.312Z,19.55
2017-08-30T06:59:19.023Z,19.61
2017-08-30T07:00:19.028Z,19.65
2017-08-30T07:01:19.179Z,19.63
2017-08-30T07:02:18.335Z,19.68
2017-08-30T07:03:18.306Z,19.72
2017-08-30T07:04:18.316Z,19.76
2017-08-30T07:05:18.334Z,19.81
2017-08-30T07:06:18.330Z,19.89
2017-08-30T07:07:18.442Z,19.95
2017-08-30T07:08:19.040Z,20.04
2017-08-30T07:09:18.277Z,20.13
2017-08-30T07:10:18.268Z,20.20
2017-08-30T07:11:18.277Z,20.28
2017-08-30T07:12:18.422Z,20.29
2017-08-30T07:13:18.330Z,20.37
2017-08-30T07:14:18.266Z,20.45
2017-08-30T07:15:18.337Z,20.52
2017-08-30T07:16:18.276Z,20.61
2017-08-30T07:17:18.330Z,20.65
2017-08-30T07:18:20.055Z,20.70
2017-08-30T07:19:18.361Z,20.76
2017-08-30T07:20:19.091Z,20.82
2017-08-30T07:21:18.421Z,20.87
2017-08-30T07:22:18.350Z,20.97
2017-08-30T07:23:19.066Z,21.03
2017-08-30T07:24:18.350Z,21.07
2017-08-30T07:25:18.347Z,21.14
2017-08-30T07:26:19.205Z,21.20
2017-08-30T07:27:18.294Z,21.28
2017-08-30T07:28:19.271Z,21.36
2017-08-30T07:29:18.330Z,21.43
2017-08-30T07:30:18.285Z,21.50
2017-08-30T07:31:19.282Z,21.61
2017-08-30T07:32:18.314Z,21.70
2017-08-30T07:33:18.257Z,21.79
2017-08-30T07:34:18.303Z,21.85
2017-08-30T07:35:18.344Z,21.98
2017-08-30T07:36:18.356Z,22.09
2017-08-30T07:37:19.222Z,22.20
2017-08-30T07:38:18.304Z,22.30
2017-08-30T07:39:18.339Z,22.43
2017-08-30T07:40:18.344Z,22.57
2017-08-30T07:41:18.331Z,22.73
2017-08-30T07:42:18.313Z,22.93
2017-08-30T07:43:18.275Z,23.09
2017-08-30T07:44:18.316Z,23.25
2017-08-30T07:45:18.255Z,23.37
2017-08-30T07:46:18.284Z,23.45
2017-08-30T07:47:19.103Z,23.55
2017-08-30T07:48:18.323Z,23.62
2017-08-30T07:49:18.335Z,23.68
2017-08-30T07:50:18.247Z,23.73
2017-08-30T07:51:18.285Z,23.71
2017-08-30T07:52:18.327Z,23.68
2017-08-30T07:53:18.252Z,23.63
2017-08-30T07:54:18.334Z,23.56
2017-08-30T07:55:18.288Z,23.52
2017-08-30T07:56:18.232Z,23.47
2017-08-30T07:57:18.386Z,23.46
2017-08-30T07:58:18.274Z,23.46
2017-08-30T07:59:18.391Z,23.47
2017-08-30T08:00:18.272Z,23.50
2017-08-30T08:01:18.287Z,23.51
2017-08-30T08:02:19.141Z,23.52
2017-08-30T08:03:18.314Z,23.52
2017-08-30T08:04:18.319Z,23.51
2017-08-30T08:05:18.321Z,23.52
2017-08-30T08:06:18.251Z,23.45
2017-08-30T08:07:18.292Z,23.45
2017-08-30T08:08:18.276Z,23.43
2017-08-30T08:09:19.142Z,23.32
2017-08-30T08:10:20.165Z,23.28
2017-08-30T08:11:18.296Z,23.25
2017-08-30T08:12:18.253Z,23.21
2017-08-30T08:13:18.242Z,23.27
2017-08-30T08:14:20.151Z,23.30
2017-08-30T08:15:18.290Z,23.36
2017-08-30T08:16:18.302Z,23.36
2017-08-30T08:17:18.315Z,23.38
2017-08-30T08:18:18.294Z,23.44
2017-08-30T08:19:18.249Z,23.47
2017-08-30T08:20:18.317Z,23.52
2017-08-30T08:21:18.663Z,23.56
2017-08-30T08:22:18.855Z,23.61
2017-08-30T08:23:18.664Z,23.63
2017-08-30T08:24:18.751Z,23.70
2017-08-30T08:25:18.333Z,23.81
2017-08-30T08:26:18.333Z,23.89
2017-08-30T08:27:18.671Z,23.97
2017-08-30T08:28:18.254Z,24.11
2017-08-30T08:29:18.252Z,24.25
2017-08-30T08:30:18.354Z,24.39
2017-08-30T08:31:18.297Z,24.52
2017-08-30T08:32:18.265Z,24.67
2017-08-30T08:33:18.261Z,24.75
2017-08-30T08:34:18.234Z,24.85
2017-08-30T08:35:19.247Z,24.94
2017-08-30T08:36:18.248Z,25.04
2017-08-30T08:37:18.271Z,25.11
2017-08-30T08:38:18.316Z,25.20
2017-08-30T08:39:18.230Z,25.26
2017-08-30T08:40:18.248Z,25.34
2017-08-30T08:41:18.695Z,25.44
2017-08-30T08:42:18.707Z,25.53
2017-08-30T08:43:18.701Z,25.60
2017-08-30T08:44:19.200Z,25.64
2017-08-30T08:45:18.304Z,25.70
2017-08-30T08:46:18.321Z,25.77
2017-08-30T08:47:18.713Z,25.82
2017-08-30T08:48:18.178Z,25.88
2017-08-30T08:49:19.210Z,25.96
2017-08-30T08:50:18.201Z,26.03
2017-08-30T08:51:18.457Z,26.06
2017-08-30T08:52:18.872Z,26.09
2017-08-30T08:53:18.235Z,26.11
2017-08-30T08:54:18.275Z,26.12
2017-08-30T08:55:18.219Z,26.13
2017-08-30T08:56:18.353Z,26.15
2017-08-30T08:57:18.258Z,26.22
2017-08-30T08:58:18.289Z,26.26
2017-08-30T08:59:18.730Z,26.36
2017-08-30T09:00:18.258Z,26.38
2017-08-30T09:01:18.337Z,26.45
2017-08-30T09:02:18.280Z,26.52
2017-08-30T09:03:18.884Z,26.54
2017-08-30T09:04:18.737Z,26.54
2017-08-30T09:05:18.739Z,26.51
2017-08-30T09:06:18.408Z,26.48
2017-08-30T09:07:18.330Z,26.47
2017-08-30T09:08:18.205Z,26.46
2017-08-30T09:09:18.275Z,26.42
2017-08-30T09:10:18.176Z,26.39
2017-08-30T09:11:18.272Z,26.37
2017-08-30T09:12:18.257Z,26.36
2017-08-30T09:13:18.755Z,26.35
2017-08-30T09:14:18.225Z,26.34
2017-08-30T09:15:18.288Z,26.34
2017-08-30T09:16:18.759Z,26.32
2017-08-30T09:17:18.768Z,26.29
2017-08-30T09:18:18.925Z,26.27
2017-08-30T09:19:18.215Z,26.27
2017-08-30T09:20:18.219Z,26.28
2017-08-30T09:21:18.267Z,26.19
2017-08-30T09:22:18.237Z,26.20
2017-08-30T09:23:18.251Z,26.22
2017-08-30T09:24:18.228Z,26.20
2017-08-30T09:25:18.267Z,26.22
2017-08-30T09:26:18.832Z,26.27
2017-08-30T09:27:18.353Z,26.27
2017-08-30T09:28:18.329Z,26.27
2017-08-30T09:29:18.249Z,26.28
2017-08-30T09:30:18.202Z,26.28
2017-08-30T09:31:18.265Z,26.29
2017-08-30T09:32:18.277Z,26.37
2017-08-30T09:33:18.183Z,26.45
2017-08-30T09:34:18.328Z,26.45
2017-08-30T09:35:18.297Z,26.54
2017-08-30T09:36:18.939Z,26.64
2017-08-30T09:37:18.272Z,26.79
2017-08-30T09:38:18.966Z,26.95
2017-08-30T09:39:18.247Z,27.02
2017-08-30T09:40:18.328Z,27.12
2017-08-30T09:41:19.302Z,27.27
2017-08-30T09:42:18.269Z,27.36
2017-08-30T09:43:18.804Z,27.45
2017-08-30T09:44:18.175Z,27.54
2017-08-30T09:45:18.187Z,27.61
2017-08-30T09:46:18.217Z,27.64
2017-08-30T09:47:18.833Z,27.70
2017-08-30T09:48:18.249Z,27.70
2017-08-30T09:49:18.815Z,27.72
2017-08-30T09:50:18.303Z,27.85
2017-08-30T09:51:18.252Z,27.97
2017-08-30T09:52:18.542Z,28.12
2017-08-30T09:53:18.308Z,28.27
2017-08-30T09:54:18.259Z,28.28
2017-08-30T09:55:18.271Z,28.29
2017-08-30T09:56:18.235Z,28.30
2017-08-30T09:57:18.214Z,28.37
2017-08-30T09:58:18.833Z,28.44
2017-08-30T09:59:18.838Z,28.59
2017-08-30T10:00:18.833Z,28.70
2017-08-30T10:01:18.836Z,28.87
2017-08-30T10:02:18.189Z,28.98
2017-08-30T10:03:18.297Z,29.07
2017-08-30T10:04:18.319Z,29.07
2017-08-30T10:05:18.233Z,28.93
2017-08-30T10:06:18.844Z,28.78
2017-08-30T10:07:18.851Z,28.94
2017-08-30T10:08:18.962Z,28.97
2017-08-30T10:09:18.983Z,29.06
2017-08-30T10:10:18.241Z,29.17
2017-08-30T10:11:18.225Z,29.26
2017-08-30T10:12:18.224Z,29.30
2017-08-30T10:13:18.307Z,29.38
2017-08-30T10:14:18.185Z,29.52
2017-08-30T10:15:18.203Z,29.62
2017-08-30T10:16:18.946Z,29.70
2017-08-30T10:17:18.894Z,29.77
2017-08-30T10:18:18.263Z,29.92
2017-08-30T10:19:18.873Z,29.97
2017-08-30T10:20:18.174Z,30.03
2017-08-30T10:21:18.874Z,30.05
2017-08-30T10:22:18.187Z,30.09
2017-08-30T10:23:18.277Z,30.18
2017-08-30T10:24:18.203Z,30.18
2017-08-30T10:25:19.026Z,30.03
2017-08-30T10:26:18.296Z,29.95
2017-08-30T10:27:19.093Z,29.87
2017-08-30T10:28:18.398Z,29.92
2017-08-30T10:29:18.131Z,29.85
2017-08-30T10:30:18.233Z,29.81
2017-08-30T10:31:18.241Z,29.79
2017-08-30T10:32:18.184Z,29.76
2017-08-30T10:33:18.254Z,29.87
2017-08-30T10:34:18.916Z,29.97
2017-08-30T10:35:18.261Z,30.15
2017-08-30T10:36:18.289Z,30.28
2017-08-30T10:37:18.232Z,30.42
2017-08-30T10:38:18.255Z,30.59
2017-08-30T10:39:18.902Z,30.62
2017-08-30T10:40:18.230Z,30.75
2017-08-30T10:41:18.243Z,30.79
2017-08-30T10:42:18.174Z,30.75
2017-08-30T10:43:18.911Z,30.61
2017-08-30T10:44:19.911Z,30.37
2017-08-30T10:45:18.204Z,30.30
2017-08-30T10:46:18.264Z,30.22
2017-08-30T10:47:18.935Z,30.19
2017-08-30T10:48:18.209Z,30.17
2017-08-30T10:49:18.920Z,30.26
2017-08-30T10:50:18.184Z,30.27
2017-08-30T10:51:18.313Z,30.31
2017-08-30T10:52:18.284Z,30.37
2017-08-30T10:53:18.256Z,30.39
2017-08-30T10:54:18.258Z,30.42
2017-08-30T10:55:18.952Z,30.45
2017-08-30T10:56:18.933Z,30.45
2017-08-30T10:57:18.202Z,30.54
2017-08-30T10:58:18.200Z,30.54
2017-08-30T10:59:18.269Z,30.60
2017-08-30T11:00:18.229Z,30.50
2017-08-30T11:01:18.173Z,30.30
2017-08-30T11:02:18.256Z,30.39
2017-08-30T11:03:18.173Z,30.45
2017-08-30T11:04:18.282Z,30.59
2017-08-30T11:05:18.976Z,30.53
2017-08-30T11:06:18.191Z,30.55
2017-08-30T11:07:18.957Z,30.57
2017-08-30T11:08:18.954Z,30.56
2017-08-30T11:09:18.981Z,30.64
2017-08-30T11:10:19.962Z,30.76
2017-08-30T11:11:19.960Z,30.79
2017-08-30T11:12:18.309Z,30.81
2017-08-30T11:13:18.281Z,30.87
2017-08-30T11:14:18.250Z,30.96
2017-08-30T11:15:18.289Z,31.03
2017-08-30T11:16:18.147Z,31.13
2017-08-30T11:17:18.971Z,31.12
2017-08-30T11:18:18.238Z,31.12
2017-08-30T11:19:18.983Z,31.22
2017-08-30T11:20:18.978Z,31.26
2017-08-30T11:21:18.231Z,31.13
2017-08-30T11:22:19.203Z,31.17
2017-08-30T11:23:18.192Z,31.07
2017-08-30T11:24:18.144Z,31.04
2017-08-30T11:25:18.247Z,31.15
2017-08-30T11:26:18.191Z,31.19
2017-08-30T11:27:19.109Z,31.20
2017-08-30T11:28:18.206Z,31.07
2017-08-30T11:29:18.992Z,31.12
2017-08-30T11:30:18.674Z,31.29
2017-08-30T11:31:18.996Z,31.23
2017-08-30T11:32:19.581Z,31.19
2017-08-30T11:33:19.198Z,31.27
2017-08-30T11:34:18.225Z,31.37
2017-08-30T11:35:18.235Z,31.52
2017-08-30T11:36:18.184Z,31.68
2017-08-30T11:37:18.236Z,31.72
2017-08-30T11:38:18.207Z,31.84
2017-08-30T11:39:18.181Z,31.94
2017-08-30T11:40:18.195Z,32.11
2017-08-30T11:41:18.191Z,32.13
2017-08-30T11:42:20.045Z,32.15
2017-08-30T11:43:19.020Z,32.22
2017-08-30T11:44:19.046Z,32.15
2017-08-30T11:45:18.244Z,32.04
2017-08-30T11:46:18.174Z,32.02
2017-08-30T11:47:18.236Z,31.90
2017-08-30T11:48:18.214Z,31.81
2017-08-30T11:49:19.030Z,31.81
2017-08-30T11:50:18.233Z,31.86
2017-08-30T11:51:18.209Z,32.00
2017-08-30T11:52:20.048Z,32.08
2017-08-30T11:53:18.190Z,32.18
2017-08-30T11:54:18.251Z,32.34
2017-08-30T11:55:19.039Z,32.50
2017-08-30T11:56:18.208Z,32.49
2017-08-30T11:57:19.068Z,32.54
2017-08-30T11:58:19.043Z,32.61
2017-08-30T11:59:19.047Z,32.68
2017-08-30T12:00:18.292Z,32.79
2017-08-30T12:01:18.243Z,32.93
2017-08-30T12:02:20.065Z,32.97
2017-08-30T12:03:18.170Z,33.16
2017-08-30T12:04:18.158Z,33.41
2017-08-30T12:05:18.192Z,33.49
2017-08-30T12:06:18.247Z,33.54
2017-08-30T12:07:18.151Z,33.50
2017-08-30T12:08:18.205Z,33.45
2017-08-30T12:09:18.171Z,33.38
2017-08-30T12:10:18.759Z,33.38
2017-08-30T12:11:18.257Z,33.40
2017-08-30T12:12:20.070Z,33.41
2017-08-30T12:13:18.187Z,33.45
2017-08-30T12:14:18.224Z,33.33
2017-08-30T12:15:18.582Z,33.29
2017-08-30T12:16:18.170Z,33.18
2017-08-30T12:17:18.249Z,33.24
2017-08-30T12:18:18.185Z,33.43
2017-08-30T12:19:18.287Z,33.54
2017-08-30T12:20:18.627Z,33.56
2017-08-30T12:21:19.588Z,33.66
2017-08-30T12:22:18.653Z,33.74
2017-08-30T12:23:18.121Z,33.70
2017-08-30T12:24:18.175Z,33.54
2017-08-30T12:25:18.218Z,33.54
2017-08-30T12:26:18.355Z,33.43
2017-08-30T12:27:18.104Z,33.27
2017-08-30T12:28:18.116Z,33.24
2017-08-30T12:29:18.217Z,33.25
2017-08-30T12:30:18.729Z,33.29
2017-08-30T12:31:18.131Z,33.45
2017-08-30T12:32:18.186Z,33.61
2017-08-30T12:33:18.150Z,33.68
2017-08-30T12:34:18.694Z,33.90
2017-08-30T12:35:18.613Z,34.02
2017-08-30T12:36:18.387Z,34.18
2017-08-30T12:37:18.158Z,34.29
2017-08-30T12:38:19.630Z,34.40
2017-08-30T12:39:18.162Z,34.20
2017-08-30T12:40:18.659Z,34.33
2017-08-30T12:41:18.220Z,34.50
2017-08-30T12:42:18.217Z,34.61
2017-08-30T12:43:18.627Z,34.84
2017-08-30T12:44:18.630Z,34.97
2017-08-30T12:45:18.184Z,35.00
2017-08-30T12:46:18.188Z,35.02
2017-08-30T12:47:18.183Z,35.06
2017-08-30T12:48:18.157Z,35.02
2017-08-30T12:49:18.933Z,35.06
2017-08-30T12:50:18.173Z,34.99
2017-08-30T12:51:18.642Z,35.02
2017-08-30T12:52:18.147Z,34.79